Cytokinetics Inc (CYTK)

Market is closed
Insider Trading: Sales
Insider Price Amount Total Value Remaining Holdings Date Form 4
$50.76 5,000 $253,800.00 397,678 2024-12-02 Filing
$50.14 2,000 $100,280.00 111,878 2024-11-26 Filing
$50.17 5,300 $265,901.00 113,878 2024-11-26 Filing
$50.00 742 $37,100.00 24,559 2024-11-25 Filing
$50.55 5,000 $252,750.00 397,456 2024-11-18 Filing
$58.48 1,042 $60,936.16 113,878 2024-11-12 Filing
$58.48 5,300 $309,944.00 114,920 2024-11-12 Filing
$51.63 5,000 $258,150.00 397,456 2024-11-01 Filing
$52.25 4,452 $232,617.00 24,559 2024-10-28 Filing
$51.93 2,000 $103,860.00 114,920 2024-10-30 Filing
$51.90 5,300 $275,070.00 116,920 2024-10-30 Filing
$54.20 2,000 $108,400.00 116,920 2024-10-15 Filing
$54.18 5,300 $287,154.00 118,920 2024-10-15 Filing
$55.61 5,000 $278,050.00 397,456 2024-10-09 Filing
$52.09 5,300 $276,077.00 118,920 2024-10-01 Filing
$52.11 2,000 $104,220.00 118,920 2024-10-01 Filing
$52.14 5,000 $260,700.00 397,456 2024-09-30 Filing
$56.76 2,000 $113,520.00 120,920 2024-09-17 Filing
$56.77 5,300 $300,881.00 122,920 2024-09-17 Filing
$55.99 5,000 $279,950.00 397,456 2024-09-16 Filing